Linville, Virginia
Current Conditions -  °F | °C
As of 6:55 PM on Saturday 25 Oct 2014 (Local Time) from K8W2 Reporting Station
Clear Clear  
Wind Chill: 69°   Ceiling: Unl
Heat Index: 69°   Visibility: 10mi
Dew Point: 45°   Wind: 3mph
Humidity: 43%   Direction: 290°WNW
Pressure: 29.77"   Gusts: NA
Location:  38.52°N, 78.84°W
Report Text: K8W2 252255Z AUTO 29003KT 10SM CLR 20/07 A2977 RMK AO1 T02040073
Loading
Personal Weather Stations






























Interactive Weather Map
Tropical Storm Tracking
New forecast layout! Learn more

10-Day Weather Forecast

Advertisements
Track Severe Weather on mobile